Holden, UT (84636)

5:52 AM MDT on September 19, 2014 (GMT -0600)
Oak City | Change Station
CLOSE
Current Station
Personal Weather Station
Location: Oak City, UT
Elevation: 5135 ft
Nearby Weather Stations

Elev 5135 ft 39.37 °N, 112.33 °W | Updated 2 minutes ago

Mostly Cloudy
Mostly Cloudy
65.1 °F
Feels Like 65.1 °F
N
4.0
Wind Variable Wind from West
Gusts 9.0 mph

Today
High -- | Low -- °F
--% Chance of Precip.
Yesterday
High -- | Low -- °F
Precip. -- in
7:14 AM 7:30 PM
Waning Crescent, 19% visible
Pressure 30.01 in
Visibility 10.0 miles
Clouds Mostly Cloudy 8000 ft
Overcast 9500 ft
Dew Point 50 °F
Humidity 58%
Rainfall 0.00 in
Snow Depth 0 in , 0 in , 0 in
UV 0 out of 12
Pollen 4.60 out of 12
Air Quality Not available.
Flu Activity Not available.
SPECI KMLF 191134Z AUTO 19005KT 10SM BKN080 OVC095 18/11 A3001 RMK AO2 T01780106

More Conditions Fewer Conditions

Pressure 30.01 in
Visibility 10.0 miles
Clouds Mostly Cloudy 8000 ft
Overcast 9500 ft
Dew Point 50 °F
Humidity 58%
Rainfall 0.00 in
Snow Depth 0 in , 0 in , 0 in
UV 0 out of 12
Pollen 4.60 out of 12
Air Quality Not available.
Flu Activity Not available.
SPECI KMLF 191134Z AUTO 19005KT 10SM BKN080 OVC095 18/11 A3001 RMK AO2 T01780106

More Conditions Fewer Conditions

10-Day Weather Forecast

Almanac

Astronomy

Sep. 19, 2014 Rise Set
Actual Time 7:14 AM MDT 7:30 PM MDT
Civil Twilight 6:47 AM MDT 7:57 PM MDT
Nautical Twilight 6:15 AM MDT 8:28 PM MDT
Astronomical Twilight 5:44 AM MDT 9:00 PM MDT
Moon 3:04 AM MDT 5:00 PM MDT
Length of Visible Light 13h 10m
Length of Day
12h 16m
Tomorrow will be 2m 31s shorter.
Waning Crescent, 19% of the Moon is Illuminated
Today
Waning Crescent
Sep 24
New
Oct 1
First Quarter
Oct 8
Full
Oct 15
Last Quarter

Today's Extremes

State Highs State Lows

Community

WunderPhotos

Upload Photos

1,754,597 photos uploaded!

Nearby

Snow Depth

Station Depth Elevation
Long Flat 0 in 8000 ft
Little Bear 0 in 6550 ft
Clayton Springs 0 in 10000 ft
White River #1 0 in 8550 ft
Ben Lomond Peak 16 in 8000 ft

Earthquake Activity

City Distance Mag. Time & Date
No recent earthquake activity has been reported nearby.
Minimum magnitude displayed is 2.5.

Coastal Water Temperatures

Place Temperature
No Stations Reporting

Nearby Weather Stations